sensor_id;sensor_type;location;lat;lon;timestamp;P1;durP1;ratioP1;P2;durP2;ratioP2
36797;SDS011;22748;8.426;99.512;2023-09-19T00:01:20;14.25;;;11.55;;
36797;SDS011;22748;8.426;99.512;2023-09-19T00:03:51;11.98;;;10.85;;
36797;SDS011;22748;8.426;99.512;2023-09-19T00:06:23;17.35;;;14.75;;
36797;SDS011;22748;8.426;99.512;2023-09-19T00:08:55;13.85;;;12.38;;
36797;SDS011;22748;8.426;99.512;2023-09-19T00:11:28;15.48;;;13.35;;
36797;SDS011;22748;8.426;99.512;2023-09-19T00:14:00;25.30;;;19.65;;
36797;SDS011;22748;8.426;99.512;2023-09-19T00:16:32;25.50;;;21.38;;
36797;SDS011;22748;8.426;99.512;2023-09-19T00:19:16;22.15;;;19.73;;
36797;SDS011;22748;8.426;99.512;2023-09-19T00:21:52;21.45;;;15.38;;
36797;SDS011;22748;8.426;99.512;2023-09-19T00:24:23;19.38;;;17.25;;
36797;SDS011;22748;8.426;99.512;2023-09-19T00:26:56;16.00;;;14.52;;
36797;SDS011;22748;8.426;99.512;2023-09-19T00:29:28;12.85;;;11.65;;
36797;SDS011;22748;8.426;99.512;2023-09-19T00:32:00;12.93;;;10.82;;
36797;SDS011;22748;8.426;99.512;2023-09-19T00:34:31;13.48;;;11.63;;
36797;SDS011;22748;8.426;99.512;2023-09-19T00:37:08;17.15;;;13.73;;
36797;SDS011;22748;8.426;99.512;2023-09-19T00:39:41;14.32;;;13.00;;
36797;SDS011;22748;8.426;99.512;2023-09-19T00:42:19;17.48;;;12.23;;
36797;SDS011;22748;8.426;99.512;2023-09-19T00:44:53;15.57;;;13.80;;
36797;SDS011;22748;8.426;99.512;2023-09-19T00:47:24;14.88;;;12.85;;
36797;SDS011;22748;8.426;99.512;2023-09-19T00:49:57;13.60;;;12.18;;
36797;SDS011;22748;8.426;99.512;2023-09-19T00:52:29;13.20;;;11.77;;
36797;SDS011;22748;8.426;99.512;2023-09-19T00:55:07;14.50;;;13.07;;
36797;SDS011;22748;8.426;99.512;2023-09-19T00:57:42;13.75;;;12.18;;
36797;SDS011;22748;8.426;99.512;2023-09-19T01:00:14;15.07;;;12.25;;
36797;SDS011;22748;8.426;99.512;2023-09-19T01:02:47;12.70;;;11.48;;
36797;SDS011;22748;8.426;99.512;2023-09-19T01:05:18;12.20;;;11.02;;
36797;SDS011;22748;8.426;99.512;2023-09-19T01:07:54;12.25;;;11.05;;
36797;SDS011;22748;8.426;99.512;2023-09-19T01:10:25;12.63;;;11.38;;
36797;SDS011;22748;8.426;99.512;2023-09-19T01:12:59;12.52;;;11.25;;
36797;SDS011;22748;8.426;99.512;2023-09-19T01:15:38;12.77;;;11.48;;
36797;SDS011;22748;8.426;99.512;2023-09-19T01:18:16;11.88;;;10.70;;
36797;SDS011;22748;8.426;99.512;2023-09-19T01:20:55;14.18;;;12.73;;
36797;SDS011;22748;8.426;99.512;2023-09-19T01:23:39;20.85;;;14.00;;
36797;SDS011;22748;8.426;99.512;2023-09-19T01:26:59;14.15;;;12.73;;
36797;SDS011;22748;8.426;99.512;2023-09-19T01:32:55;14.52;;;13.10;;
36797;SDS011;22748;8.426;99.512;2023-09-19T01:35:26;13.35;;;11.98;;
36797;SDS011;22748;8.426;99.512;2023-09-19T01:37:57;12.93;;;11.60;;
36797;SDS011;22748;8.426;99.512;2023-09-19T01:42:57;17.15;;;13.65;;
36797;SDS011;22748;8.426;99.512;2023-09-19T01:45:37;14.02;;;12.30;;
36797;SDS011;22748;8.426;99.512;2023-09-19T01:48:19;15.65;;;12.88;;
36797;SDS011;22748;8.426;99.512;2023-09-19T01:50:58;14.45;;;12.07;;
36797;SDS011;22748;8.426;99.512;2023-09-19T01:56:30;14.38;;;11.57;;
36797;SDS011;22748;8.426;99.512;2023-09-19T01:59:07;11.38;;;10.23;;
36797;SDS011;22748;8.426;99.512;2023-09-19T02:01:54;13.20;;;10.57;;
36797;SDS011;22748;8.426;99.512;2023-09-19T02:04:30;12.48;;;9.52;;
36797;SDS011;22748;8.426;99.512;2023-09-19T02:07:04;11.73;;;9.23;;
36797;SDS011;22748;8.426;99.512;2023-09-19T02:12:06;8.98;;;8.05;;
36797;SDS011;22748;8.426;99.512;2023-09-19T02:14:38;7.72;;;7.03;;
36797;SDS011;22748;8.426;99.512;2023-09-19T02:17:11;10.13;;;7.18;;
36797;SDS011;22748;8.426;99.512;2023-09-19T02:19:43;7.88;;;7.05;;
36797;SDS011;22748;8.426;99.512;2023-09-19T02:22:20;11.05;;;7.20;;
36797;SDS011;22748;8.426;99.512;2023-09-19T02:24:51;8.00;;;6.65;;
36797;SDS011;22748;8.426;99.512;2023-09-19T02:27:26;9.25;;;6.60;;
36797;SDS011;22748;8.426;99.512;2023-09-19T02:30:03;11.93;;;6.35;;
36797;SDS011;22748;8.426;99.512;2023-09-19T02:32:44;9.80;;;6.70;;
36797;SDS011;22748;8.426;99.512;2023-09-19T02:35:17;11.75;;;6.97;;
36797;SDS011;22748;8.426;99.512;2023-09-19T02:37:55;19.98;;;7.25;;
36797;SDS011;22748;8.426;99.512;2023-09-19T02:40:26;8.93;;;6.57;;
36797;SDS011;22748;8.426;99.512;2023-09-19T02:42:58;10.88;;;7.03;;
36797;SDS011;22748;8.426;99.512;2023-09-19T02:45:31;10.50;;;7.63;;
36797;SDS011;22748;8.426;99.512;2023-09-19T02:48:04;11.15;;;8.05;;
36797;SDS011;22748;8.426;99.512;2023-09-19T02:50:36;10.40;;;7.32;;
36797;SDS011;22748;8.426;99.512;2023-09-19T02:53:09;6.95;;;6.32;;
36797;SDS011;22748;8.426;99.512;2023-09-19T02:55:41;8.02;;;6.95;;
36797;SDS011;22748;8.426;99.512;2023-09-19T02:58:12;9.80;;;7.70;;
36797;SDS011;22748;8.426;99.512;2023-09-19T03:00:42;9.57;;;7.70;;
36797;SDS011;22748;8.426;99.512;2023-09-19T03:03:24;9.73;;;8.55;;
36797;SDS011;22748;8.426;99.512;2023-09-19T03:06:03;13.55;;;8.48;;
36797;SDS011;22748;8.426;99.512;2023-09-19T03:08:36;11.27;;;7.90;;
36797;SDS011;22748;8.426;99.512;2023-09-19T03:11:09;15.88;;;13.35;;
36797;SDS011;22748;8.426;99.512;2023-09-19T03:13:42;13.50;;;10.55;;
36797;SDS011;22748;8.426;99.512;2023-09-19T03:16:12;9.82;;;8.35;;
36797;SDS011;22748;8.426;99.512;2023-09-19T03:18:45;9.18;;;8.15;;
36797;SDS011;22748;8.426;99.512;2023-09-19T03:21:15;11.00;;;7.88;;
36797;SDS011;22748;8.426;99.512;2023-09-19T03:23:47;9.35;;;8.07;;
36797;SDS011;22748;8.426;99.512;2023-09-19T03:26:18;9.07;;;7.90;;
36797;SDS011;22748;8.426;99.512;2023-09-19T03:28:48;7.93;;;7.22;;
36797;SDS011;22748;8.426;99.512;2023-09-19T03:31:20;8.82;;;7.50;;
36797;SDS011;22748;8.426;99.512;2023-09-19T03:33:54;8.20;;;7.28;;
36797;SDS011;22748;8.426;99.512;2023-09-19T03:36:29;7.15;;;6.32;;
36797;SDS011;22748;8.426;99.512;2023-09-19T03:39:00;8.15;;;7.30;;
36797;SDS011;22748;8.426;99.512;2023-09-19T03:41:31;9.68;;;7.25;;
36797;SDS011;22748;8.426;99.512;2023-09-19T03:44:04;10.38;;;7.38;;
36797;SDS011;22748;8.426;99.512;2023-09-19T03:46:34;8.77;;;7.85;;
36797;SDS011;22748;8.426;99.512;2023-09-19T03:49:07;10.18;;;7.80;;
36797;SDS011;22748;8.426;99.512;2023-09-19T03:51:37;8.18;;;7.32;;
36797;SDS011;22748;8.426;99.512;2023-09-19T03:54:09;7.45;;;6.75;;
36797;SDS011;22748;8.426;99.512;2023-09-19T03:56:39;9.20;;;7.43;;
36797;SDS011;22748;8.426;99.512;2023-09-19T03:59:11;8.35;;;6.70;;
36797;SDS011;22748;8.426;99.512;2023-09-19T04:01:41;7.65;;;6.90;;
36797;SDS011;22748;8.426;99.512;2023-09-19T04:04:17;7.28;;;6.65;;
36797;SDS011;22748;8.426;99.512;2023-09-19T04:06:50;7.60;;;6.90;;
36797;SDS011;22748;8.426;99.512;2023-09-19T04:09:21;7.60;;;6.90;;
36797;SDS011;22748;8.426;99.512;2023-09-19T04:11:52;8.05;;;7.05;;
36797;SDS011;22748;8.426;99.512;2023-09-19T04:14:23;10.18;;;7.03;;
36797;SDS011;22748;8.426;99.512;2023-09-19T04:16:55;10.43;;;7.90;;
36797;SDS011;22748;8.426;99.512;2023-09-19T04:19:28;12.73;;;7.82;;
36797;SDS011;22748;8.426;99.512;2023-09-19T04:21:59;9.98;;;7.50;;
36797;SDS011;22748;8.426;99.512;2023-09-19T04:24:31;8.20;;;6.95;;
36797;SDS011;22748;8.426;99.512;2023-09-19T04:27:02;8.70;;;7.72;;
36797;SDS011;22748;8.426;99.512;2023-09-19T04:29:34;9.18;;;8.13;;
36797;SDS011;22748;8.426;99.512;2023-09-19T04:32:04;8.38;;;7.65;;
36797;SDS011;22748;8.426;99.512;2023-09-19T04:34:37;10.20;;;7.95;;
36797;SDS011;22748;8.426;99.512;2023-09-19T04:37:08;10.35;;;7.50;;
36797;SDS011;22748;8.426;99.512;2023-09-19T04:39:41;9.07;;;8.10;;
36797;SDS011;22748;8.426;99.512;2023-09-19T04:42:14;14.18;;;7.95;;
36797;SDS011;22748;8.426;99.512;2023-09-19T04:44:45;9.48;;;7.90;;
36797;SDS011;22748;8.426;99.512;2023-09-19T04:47:16;8.43;;;7.63;;
36797;SDS011;22748;8.426;99.512;2023-09-19T04:49:52;8.55;;;7.75;;
36797;SDS011;22748;8.426;99.512;2023-09-19T04:52:23;11.80;;;9.15;;
36797;SDS011;22748;8.426;99.512;2023-09-19T04:54:55;10.95;;;8.07;;
36797;SDS011;22748;8.426;99.512;2023-09-19T04:57:26;12.15;;;8.90;;
36797;SDS011;22748;8.426;99.512;2023-09-19T04:59:57;9.40;;;8.30;;
36797;SDS011;22748;8.426;99.512;2023-09-19T05:02:33;9.60;;;8.70;;
36797;SDS011;22748;8.426;99.512;2023-09-19T05:05:07;10.95;;;9.95;;
36797;SDS011;22748;8.426;99.512;2023-09-19T05:07:43;9.88;;;8.98;;
36797;SDS011;22748;8.426;99.512;2023-09-19T05:10:16;9.57;;;8.52;;
36797;SDS011;22748;8.426;99.512;2023-09-19T05:12:47;9.18;;;8.30;;
36797;SDS011;22748;8.426;99.512;2023-09-19T05:15:23;8.52;;;7.82;;
36797;SDS011;22748;8.426;99.512;2023-09-19T05:17:54;8.02;;;7.28;;
36797;SDS011;22748;8.426;99.512;2023-09-19T05:20:27;9.48;;;7.30;;
36797;SDS011;22748;8.426;99.512;2023-09-19T05:23:00;8.10;;;7.38;;
36797;SDS011;22748;8.426;99.512;2023-09-19T05:25:35;8.35;;;7.55;;
36797;SDS011;22748;8.426;99.512;2023-09-19T05:28:13;9.50;;;7.53;;
36797;SDS011;22748;8.426;99.512;2023-09-19T05:30:43;8.63;;;7.82;;
36797;SDS011;22748;8.426;99.512;2023-09-19T05:33:14;9.95;;;7.30;;
36797;SDS011;22748;8.426;99.512;2023-09-19T05:35:52;8.15;;;7.35;;
36797;SDS011;22748;8.426;99.512;2023-09-19T05:38:24;9.50;;;7.63;;
36797;SDS011;22748;8.426;99.512;2023-09-19T05:40:54;8.63;;;7.57;;
36797;SDS011;22748;8.426;99.512;2023-09-19T05:43:25;8.63;;;7.82;;
36797;SDS011;22748;8.426;99.512;2023-09-19T05:45:56;16.13;;;9.23;;
36797;SDS011;22748;8.426;99.512;2023-09-19T05:48:29;7.93;;;7.05;;
36797;SDS011;22748;8.426;99.512;2023-09-19T05:51:01;10.73;;;8.77;;
36797;SDS011;22748;8.426;99.512;2023-09-19T05:53:35;7.85;;;7.07;;
36797;SDS011;22748;8.426;99.512;2023-09-19T05:56:06;7.53;;;6.80;;
36797;SDS011;22748;8.426;99.512;2023-09-19T05:58:40;8.13;;;7.32;;
36797;SDS011;22748;8.426;99.512;2023-09-19T06:01:11;8.93;;;8.00;;
36797;SDS011;22748;8.426;99.512;2023-09-19T06:03:41;9.10;;;8.20;;
36797;SDS011;22748;8.426;99.512;2023-09-19T06:06:14;11.23;;;8.18;;
36797;SDS011;22748;8.426;99.512;2023-09-19T06:08:44;8.65;;;7.85;;
36797;SDS011;22748;8.426;99.512;2023-09-19T06:11:17;8.20;;;7.40;;
36797;SDS011;22748;8.426;99.512;2023-09-19T06:13:54;8.35;;;7.07;;
36797;SDS011;22748;8.426;99.512;2023-09-19T06:16:27;9.63;;;8.60;;
36797;SDS011;22748;8.426;99.512;2023-09-19T06:19:02;9.32;;;8.52;;
36797;SDS011;22748;8.426;99.512;2023-09-19T06:21:37;8.30;;;7.60;;
36797;SDS011;22748;8.426;99.512;2023-09-19T06:24:07;8.40;;;7.68;;
36797;SDS011;22748;8.426;99.512;2023-09-19T06:26:38;8.90;;;8.07;;
36797;SDS011;22748;8.426;99.512;2023-09-19T06:29:11;10.30;;;9.40;;
36797;SDS011;22748;8.426;99.512;2023-09-19T06:31:43;12.18;;;9.52;;
36797;SDS011;22748;8.426;99.512;2023-09-19T06:34:14;9.63;;;8.65;;
36797;SDS011;22748;8.426;99.512;2023-09-19T06:36:48;9.85;;;8.95;;
36797;SDS011;22748;8.426;99.512;2023-09-19T06:39:21;9.75;;;8.70;;
36797;SDS011;22748;8.426;99.512;2023-09-19T06:41:52;7.88;;;7.15;;
36797;SDS011;22748;8.426;99.512;2023-09-19T06:44:23;10.95;;;6.75;;
36797;SDS011;22748;8.426;99.512;2023-09-19T06:46:57;9.05;;;6.93;;
36797;SDS011;22748;8.426;99.512;2023-09-19T06:49:28;7.93;;;7.13;;
36797;SDS011;22748;8.426;99.512;2023-09-19T06:52:01;16.52;;;8.93;;
36797;SDS011;22748;8.426;99.512;2023-09-19T06:54:33;11.05;;;7.10;;
36797;SDS011;22748;8.426;99.512;2023-09-19T06:57:07;9.65;;;6.10;;
36797;SDS011;22748;8.426;99.512;2023-09-19T06:59:37;7.82;;;5.53;;
36797;SDS011;22748;8.426;99.512;2023-09-19T07:02:09;9.63;;;5.07;;
36797;SDS011;22748;8.426;99.512;2023-09-19T07:04:40;6.05;;;4.50;;
36797;SDS011;22748;8.426;99.512;2023-09-19T07:07:16;6.00;;;4.15;;
36797;SDS011;22748;8.426;99.512;2023-09-19T07:09:47;5.65;;;3.30;;
36797;SDS011;22748;8.426;99.512;2023-09-19T07:12:20;4.60;;;2.85;;
36797;SDS011;22748;8.426;99.512;2023-09-19T07:14:50;3.42;;;1.92;;
36797;SDS011;22748;8.426;99.512;2023-09-19T07:17:20;3.00;;;2.03;;
36797;SDS011;22748;8.426;99.512;2023-09-19T07:19:57;5.20;;;2.40;;
36797;SDS011;22748;8.426;99.512;2023-09-19T07:22:36;5.13;;;2.67;;
36797;SDS011;22748;8.426;99.512;2023-09-19T07:25:07;14.13;;;3.03;;
36797;SDS011;22748;8.426;99.512;2023-09-19T07:27:41;8.77;;;3.85;;
36797;SDS011;22748;8.426;99.512;2023-09-19T07:32:43;7.10;;;3.30;;
36797;SDS011;22748;8.426;99.512;2023-09-19T07:37:50;4.82;;;2.60;;
36797;SDS011;22748;8.426;99.512;2023-09-19T07:40:23;4.00;;;3.00;;
36797;SDS011;22748;8.426;99.512;2023-09-19T07:42:56;6.03;;;2.92;;
36797;SDS011;22748;8.426;99.512;2023-09-19T07:45:27;5.10;;;2.55;;
36797;SDS011;22748;8.426;99.512;2023-09-19T07:47:58;4.25;;;3.15;;
36797;SDS011;22748;8.426;99.512;2023-09-19T07:50:30;7.25;;;2.70;;
36797;SDS011;22748;8.426;99.512;2023-09-19T07:53:05;3.88;;;3.25;;
36797;SDS011;22748;8.426;99.512;2023-09-19T07:55:35;5.97;;;3.70;;
36797;SDS011;22748;8.426;99.512;2023-09-19T07:58:07;5.93;;;4.00;;
36797;SDS011;22748;8.426;99.512;2023-09-19T08:00:40;8.80;;;5.28;;
36797;SDS011;22748;8.426;99.512;2023-09-19T08:03:19;7.65;;;3.72;;
36797;SDS011;22748;8.426;99.512;2023-09-19T08:05:50;5.40;;;3.90;;
36797;SDS011;22748;8.426;99.512;2023-09-19T08:08:23;4.45;;;3.00;;
36797;SDS011;22748;8.426;99.512;2023-09-19T08:10:54;4.43;;;2.67;;
36797;SDS011;22748;8.426;99.512;2023-09-19T08:13:27;5.68;;;3.38;;
36797;SDS011;22748;8.426;99.512;2023-09-19T08:15:57;3.10;;;2.80;;
36797;SDS011;22748;8.426;99.512;2023-09-19T08:18:30;3.35;;;2.33;;
36797;SDS011;22748;8.426;99.512;2023-09-19T08:21:03;3.25;;;2.15;;
36797;SDS011;22748;8.426;99.512;2023-09-19T08:23:39;3.00;;;2.10;;
36797;SDS011;22748;8.426;99.512;2023-09-19T08:26:11;3.53;;;2.13;;
36797;SDS011;22748;8.426;99.512;2023-09-19T08:28:41;4.90;;;2.80;;
36797;SDS011;22748;8.426;99.512;2023-09-19T08:31:12;2.85;;;2.17;;
36797;SDS011;22748;8.426;99.512;2023-09-19T08:36:17;1.95;;;1.80;;
36797;SDS011;22748;8.426;99.512;2023-09-19T08:38:50;1.92;;;1.83;;
36797;SDS011;22748;8.426;99.512;2023-09-19T08:41:29;2.08;;;1.63;;
36797;SDS011;22748;8.426;99.512;2023-09-19T08:44:01;1.55;;;1.45;;
36797;SDS011;22748;8.426;99.512;2023-09-19T08:46:31;1.65;;;1.55;;
36797;SDS011;22748;8.426;99.512;2023-09-19T08:49:08;2.30;;;1.70;;
36797;SDS011;22748;8.426;99.512;2023-09-19T08:51:53;2.00;;;1.67;;
36797;SDS011;22748;8.426;99.512;2023-09-19T08:54:32;1.67;;;1.42;;
36797;SDS011;22748;8.426;99.512;2023-09-19T08:57:07;1.70;;;1.60;;
36797;SDS011;22748;8.426;99.512;2023-09-19T08:59:45;1.92;;;1.48;;
36797;SDS011;22748;8.426;99.512;2023-09-19T09:02:19;2.42;;;2.03;;
36797;SDS011;22748;8.426;99.512;2023-09-19T09:04:54;4.95;;;2.05;;
36797;SDS011;22748;8.426;99.512;2023-09-19T09:07:27;2.75;;;2.55;;
36797;SDS011;22748;8.426;99.512;2023-09-19T09:10:07;2.78;;;2.20;;
36797;SDS011;22748;8.426;99.512;2023-09-19T09:12:38;4.55;;;2.00;;
36797;SDS011;22748;8.426;99.512;2023-09-19T09:15:10;2.95;;;2.30;;
36797;SDS011;22748;8.426;99.512;2023-09-19T09:17:46;2.88;;;2.30;;
36797;SDS011;22748;8.426;99.512;2023-09-19T09:20:18;2.50;;;1.90;;
36797;SDS011;22748;8.426;99.512;2023-09-19T09:22:55;2.30;;;2.10;;
36797;SDS011;22748;8.426;99.512;2023-09-19T09:28:30;3.22;;;2.50;;
36797;SDS011;22748;8.426;99.512;2023-09-19T09:31:11;2.95;;;2.72;;
36797;SDS011;22748;8.426;99.512;2023-09-19T09:33:53;4.13;;;2.85;;
36797;SDS011;22748;8.426;99.512;2023-09-19T09:36:39;7.15;;;5.10;;
36797;SDS011;22748;8.426;99.512;2023-09-19T09:39:10;5.82;;;4.07;;
36797;SDS011;22748;8.426;99.512;2023-09-19T09:42:00;4.78;;;4.03;;
36797;SDS011;22748;8.426;99.512;2023-09-19T09:44:36;8.60;;;3.65;;
36797;SDS011;22748;8.426;99.512;2023-09-19T09:47:10;6.10;;;3.53;;
36797;SDS011;22748;8.426;99.512;2023-09-19T09:49:55;4.18;;;3.22;;
36797;SDS011;22748;8.426;99.512;2023-09-19T09:52:44;4.00;;;3.30;;
36797;SDS011;22748;8.426;99.512;2023-09-19T09:55:14;3.45;;;3.15;;
36797;SDS011;22748;8.426;99.512;2023-09-19T09:57:50;7.90;;;3.20;;
36797;SDS011;22748;8.426;99.512;2023-09-19T10:00:52;6.82;;;3.00;;
36797;SDS011;22748;8.426;99.512;2023-09-19T10:03:33;4.95;;;2.65;;
36797;SDS011;22748;8.426;99.512;2023-09-19T10:06:10;13.93;;;3.17;;
36797;SDS011;22748;8.426;99.512;2023-09-19T10:09:09;5.47;;;2.47;;
36797;SDS011;22748;8.426;99.512;2023-09-19T10:11:41;4.47;;;2.45;;
36797;SDS011;22748;8.426;99.512;2023-09-19T10:14:14;5.78;;;2.10;;
36797;SDS011;22748;8.426;99.512;2023-09-19T10:16:50;6.72;;;2.42;;
36797;SDS011;22748;8.426;99.512;2023-09-19T10:19:31;5.22;;;1.95;;
36797;SDS011;22748;8.426;99.512;2023-09-19T10:22:12;2.78;;;1.90;;
36797;SDS011;22748;8.426;99.512;2023-09-19T10:24:47;5.40;;;2.08;;
36797;SDS011;22748;8.426;99.512;2023-09-19T10:27:20;2.75;;;1.80;;
36797;SDS011;22748;8.426;99.512;2023-09-19T10:29:57;2.30;;;1.73;;
36797;SDS011;22748;8.426;99.512;2023-09-19T10:32:30;2.38;;;1.70;;
36797;SDS011;22748;8.426;99.512;2023-09-19T10:35:02;2.65;;;1.67;;
36797;SDS011;22748;8.426;99.512;2023-09-19T10:37:36;2.33;;;2.00;;
36797;SDS011;22748;8.426;99.512;2023-09-19T10:40:09;6.43;;;2.53;;
36797;SDS011;22748;8.426;99.512;2023-09-19T10:42:43;3.03;;;1.90;;
36797;SDS011;22748;8.426;99.512;2023-09-19T10:45:21;6.10;;;2.67;;
36797;SDS011;22748;8.426;99.512;2023-09-19T10:47:54;5.38;;;3.47;;
36797;SDS011;22748;8.426;99.512;2023-09-19T10:50:25;4.43;;;4.03;;
36797;SDS011;22748;8.426;99.512;2023-09-19T10:53:01;7.25;;;5.20;;
36797;SDS011;22748;8.426;99.512;2023-09-19T10:55:35;11.20;;;10.05;;
36797;SDS011;22748;8.426;99.512;2023-09-19T10:58:07;9.18;;;8.27;;
36797;SDS011;22748;8.426;99.512;2023-09-19T11:01:02;7.38;;;6.78;;
36797;SDS011;22748;8.426;99.512;2023-09-19T11:03:39;10.20;;;6.00;;
36797;SDS011;22748;8.426;99.512;2023-09-19T11:06:13;12.68;;;5.82;;
36797;SDS011;22748;8.426;99.512;2023-09-19T11:09:02;10.20;;;6.40;;
36797;SDS011;22748;8.426;99.512;2023-09-19T11:11:50;6.60;;;5.32;;
36797;SDS011;22748;8.426;99.512;2023-09-19T11:14:40;5.10;;;4.60;;
36797;SDS011;22748;8.426;99.512;2023-09-19T11:20:30;4.32;;;3.90;;
36797;SDS011;22748;8.426;99.512;2023-09-19T11:23:26;5.38;;;4.70;;
36797;SDS011;22748;8.426;99.512;2023-09-19T11:25:58;9.80;;;7.18;;
36797;SDS011;22748;8.426;99.512;2023-09-19T11:28:29;8.93;;;7.35;;
36797;SDS011;22748;8.426;99.512;2023-09-19T11:31:40;9.68;;;7.30;;
36797;SDS011;22748;8.426;99.512;2023-09-19T11:40:45;8.48;;;7.35;;
36797;SDS011;22748;8.426;99.512;2023-09-19T11:43:37;12.73;;;6.82;;
36797;SDS011;22748;8.426;99.512;2023-09-19T11:46:07;7.53;;;6.70;;
36797;SDS011;22748;8.426;99.512;2023-09-19T11:48:41;7.57;;;6.10;;
36797;SDS011;22748;8.426;99.512;2023-09-19T11:51:20;7.90;;;6.90;;
36797;SDS011;22748;8.426;99.512;2023-09-19T11:53:53;8.68;;;6.53;;
36797;SDS011;22748;8.426;99.512;2023-09-19T11:56:27;6.95;;;6.25;;
36797;SDS011;22748;8.426;99.512;2023-09-19T11:59:00;8.38;;;6.78;;
36797;SDS011;22748;8.426;99.512;2023-09-19T12:01:36;7.63;;;6.80;;
36797;SDS011;22748;8.426;99.512;2023-09-19T12:04:36;8.85;;;8.07;;
36797;SDS011;22748;8.426;99.512;2023-09-19T12:07:30;8.77;;;7.88;;
36797;SDS011;22748;8.426;99.512;2023-09-19T12:10:14;9.55;;;8.13;;
36797;SDS011;22748;8.426;99.512;2023-09-19T12:12:49;11.00;;;8.32;;
36797;SDS011;22748;8.426;99.512;2023-09-19T12:15:25;12.07;;;7.50;;
36797;SDS011;22748;8.426;99.512;2023-09-19T12:18:01;9.55;;;6.95;;
36797;SDS011;22748;8.426;99.512;2023-09-19T12:20:43;8.27;;;6.75;;
36797;SDS011;22748;8.426;99.512;2023-09-19T12:23:19;9.68;;;8.30;;
36797;SDS011;22748;8.426;99.512;2023-09-19T12:25:49;10.35;;;8.50;;
36797;SDS011;22748;8.426;99.512;2023-09-19T12:28:23;10.75;;;7.93;;
36797;SDS011;22748;8.426;99.512;2023-09-19T12:30:56;9.70;;;7.50;;
36797;SDS011;22748;8.426;99.512;2023-09-19T12:33:35;10.57;;;7.05;;
36797;SDS011;22748;8.426;99.512;2023-09-19T12:38:55;8.70;;;6.50;;
36797;SDS011;22748;8.426;99.512;2023-09-19T12:41:26;9.35;;;7.15;;
36797;SDS011;22748;8.426;99.512;2023-09-19T12:43:56;11.68;;;8.65;;
36797;SDS011;22748;8.426;99.512;2023-09-19T12:46:27;10.85;;;7.70;;
36797;SDS011;22748;8.426;99.512;2023-09-19T12:51:49;7.65;;;6.25;;
36797;SDS011;22748;8.426;99.512;2023-09-19T12:54:39;7.97;;;6.18;;
36797;SDS011;22748;8.426;99.512;2023-09-19T12:57:23;9.45;;;7.50;;
36797;SDS011;22748;8.426;99.512;2023-09-19T12:59:54;12.25;;;8.25;;
36797;SDS011;22748;8.426;99.512;2023-09-19T13:02:25;14.88;;;7.85;;
36797;SDS011;22748;8.426;99.512;2023-09-19T13:04:55;10.23;;;7.50;;
36797;SDS011;22748;8.426;99.512;2023-09-19T13:10:17;8.95;;;6.35;;
36797;SDS011;22748;8.426;99.512;2023-09-19T13:12:51;10.02;;;5.85;;
36797;SDS011;22748;8.426;99.512;2023-09-19T13:15:22;10.10;;;6.13;;
36797;SDS011;22748;8.426;99.512;2023-09-19T13:17:56;8.45;;;6.25;;
36797;SDS011;22748;8.426;99.512;2023-09-19T13:20:28;7.60;;;6.40;;
36797;SDS011;22748;8.426;99.512;2023-09-19T13:23:07;8.30;;;6.15;;
36797;SDS011;22748;8.426;99.512;2023-09-19T13:25:58;13.68;;;6.10;;
36797;SDS011;22748;8.426;99.512;2023-09-19T13:28:29;7.32;;;5.38;;
36797;SDS011;22748;8.426;99.512;2023-09-19T13:31:00;11.57;;;5.50;;
36797;SDS011;22748;8.426;99.512;2023-09-19T13:33:31;17.65;;;6.20;;
36797;SDS011;22748;8.426;99.512;2023-09-19T13:36:05;12.80;;;5.60;;
36797;SDS011;22748;8.426;99.512;2023-09-19T13:38:36;8.02;;;5.30;;
36797;SDS011;22748;8.426;99.512;2023-09-19T13:41:29;6.05;;;5.30;;
36797;SDS011;22748;8.426;99.512;2023-09-19T13:44:02;9.25;;;5.43;;
36797;SDS011;22748;8.426;99.512;2023-09-19T13:46:32;12.63;;;6.83;;
36797;SDS011;22748;8.426;99.512;2023-09-19T13:49:03;6.85;;;5.50;;
36797;SDS011;22748;8.426;99.512;2023-09-19T13:51:34;6.90;;;5.43;;
36797;SDS011;22748;8.426;99.512;2023-09-19T13:54:05;6.50;;;5.18;;
36797;SDS011;22748;8.426;99.512;2023-09-19T13:56:39;10.52;;;6.18;;
36797;SDS011;22748;8.426;99.512;2023-09-19T13:59:10;6.78;;;5.63;;
36797;SDS011;22748;8.426;99.512;2023-09-19T14:01:43;8.73;;;6.20;;
36797;SDS011;22748;8.426;99.512;2023-09-19T14:06:47;7.70;;;6.00;;
36797;SDS011;22748;8.426;99.512;2023-09-19T14:09:20;11.35;;;5.75;;
36797;SDS011;22748;8.426;99.512;2023-09-19T14:14:51;11.95;;;6.32;;
36797;SDS011;22748;8.426;99.512;2023-09-19T14:19:51;7.13;;;5.50;;
36797;SDS011;22748;8.426;99.512;2023-09-19T14:22:22;8.63;;;5.32;;
36797;SDS011;22748;8.426;99.512;2023-09-19T14:24:54;8.20;;;6.00;;
36797;SDS011;22748;8.426;99.512;2023-09-19T14:27:29;6.55;;;5.68;;
36797;SDS011;22748;8.426;99.512;2023-09-19T14:30:07;8.10;;;5.35;;
36797;SDS011;22748;8.426;99.512;2023-09-19T14:32:38;6.75;;;5.40;;
36797;SDS011;22748;8.426;99.512;2023-09-19T14:35:12;9.30;;;6.07;;
36797;SDS011;22748;8.426;99.512;2023-09-19T14:37:42;7.30;;;5.95;;
36797;SDS011;22748;8.426;99.512;2023-09-19T14:40:12;7.07;;;5.57;;
36797;SDS011;22748;8.426;99.512;2023-09-19T14:42:46;6.68;;;5.85;;
36797;SDS011;22748;8.426;99.512;2023-09-19T14:45:19;8.77;;;6.15;;
36797;SDS011;22748;8.426;99.512;2023-09-19T14:47:50;8.55;;;5.78;;
36797;SDS011;22748;8.426;99.512;2023-09-19T14:50:25;8.57;;;6.20;;
36797;SDS011;22748;8.426;99.512;2023-09-19T14:53:00;7.40;;;6.15;;
36797;SDS011;22748;8.426;99.512;2023-09-19T14:55:39;9.52;;;6.40;;
36797;SDS011;22748;8.426;99.512;2023-09-19T14:58:13;6.70;;;5.88;;
36797;SDS011;22748;8.426;99.512;2023-09-19T15:00:45;6.60;;;6.00;;
36797;SDS011;22748;8.426;99.512;2023-09-19T15:03:17;8.02;;;6.20;;
36797;SDS011;22748;8.426;99.512;2023-09-19T15:05:48;8.75;;;6.18;;
36797;SDS011;22748;8.426;99.512;2023-09-19T15:08:18;7.25;;;6.45;;
36797;SDS011;22748;8.426;99.512;2023-09-19T15:10:50;7.28;;;6.18;;
36797;SDS011;22748;8.426;99.512;2023-09-19T15:15:58;8.43;;;6.35;;
36797;SDS011;22748;8.426;99.512;2023-09-19T15:18:30;9.25;;;6.65;;
36797;SDS011;22748;8.426;99.512;2023-09-19T15:21:01;6.68;;;5.95;;
36797;SDS011;22748;8.426;99.512;2023-09-19T15:23:31;7.63;;;6.35;;
36797;SDS011;22748;8.426;99.512;2023-09-19T15:26:04;6.75;;;6.00;;
36797;SDS011;22748;8.426;99.512;2023-09-19T15:28:37;10.95;;;7.28;;
36797;SDS011;22748;8.426;99.512;2023-09-19T15:31:08;6.57;;;5.90;;
36797;SDS011;22748;8.426;99.512;2023-09-19T15:33:40;10.20;;;6.47;;
36797;SDS011;22748;8.426;99.512;2023-09-19T15:36:11;8.25;;;6.40;;
36797;SDS011;22748;8.426;99.512;2023-09-19T15:38:58;9.05;;;6.75;;
36797;SDS011;22748;8.426;99.512;2023-09-19T15:41:31;8.63;;;6.72;;
36797;SDS011;22748;8.426;99.512;2023-09-19T15:44:05;10.13;;;6.53;;
36797;SDS011;22748;8.426;99.512;2023-09-19T15:46:42;8.77;;;6.65;;
36797;SDS011;22748;8.426;99.512;2023-09-19T15:49:14;6.65;;;6.05;;
36797;SDS011;22748;8.426;99.512;2023-09-19T15:51:45;8.60;;;6.18;;
36797;SDS011;22748;8.426;99.512;2023-09-19T15:54:17;7.18;;;6.47;;
36797;SDS011;22748;8.426;99.512;2023-09-19T15:56:48;7.85;;;6.00;;
36797;SDS011;22748;8.426;99.512;2023-09-19T15:59:21;7.15;;;5.88;;
36797;SDS011;22748;8.426;99.512;2023-09-19T16:01:53;9.98;;;6.75;;
36797;SDS011;22748;8.426;99.512;2023-09-19T16:04:24;6.82;;;6.18;;
36797;SDS011;22748;8.426;99.512;2023-09-19T16:06:57;7.75;;;6.50;;
36797;SDS011;22748;8.426;99.512;2023-09-19T16:09:33;6.72;;;5.80;;
36797;SDS011;22748;8.426;99.512;2023-09-19T16:12:05;7.90;;;6.75;;
36797;SDS011;22748;8.426;99.512;2023-09-19T16:14:38;8.57;;;6.07;;
36797;SDS011;22748;8.426;99.512;2023-09-19T16:17:09;7.57;;;5.75;;